Terminal Aerodrome Forecast
Issued by NWS

Home | Current Version | Previous Version | Graphics & Text | Print | Product List | Glossary On
Versions: 1 2 3 4 5 6 7 8 9 10 11 12 13 14 15
000
FTUS43 KFGF 211618 AAA
TAFBJI
TAF AMD
KBJI 211618Z 2116/2212 10005KT 4SM BR OVC002
      TEMPO 2116/2118 1/4SM FG
     FM220600 00000KT P6SM -FZDZ OVC003=

USA.gov is the U.S. government's official web portal to all federal, state and local government web resources and services.